Time;durP1;ratioP1;P1;durP2;ratioP2;P2;SDS_P1;SDS_P2;PMS_P1;PMS_P2;Temp;Humidity;BMP_temperature;BMP_pressure;BME280_temperature;BME280_humidity;BME280_pressure;Samples;Min_cycle;Max_cycle;Signal;HPM_P1;HPM_P2
2023/07/21 00:04:53;;;;;;;2.08;1.30;;;21.70;63.20;;;;;;10323136;28;20120;-58
2023/07/21 00:09:53;;;;;;;1.17;1.02;;;21.60;63.10;;;;;;10348529;28;20100;-58
2023/07/21 00:14:54;;;;;;;1.83;1.50;;;21.60;63.20;;;;;;10350228;28;20314;-57
2023/07/21 00:19:56;;;;;;;1.40;1.30;;;21.70;63.10;;;;;;10322067;28;20042;-57
2023/07/21 00:24:57;;;;;;;1.95;1.38;;;21.60;63.10;;;;;;10322713;28;20030;-59
2023/07/21 00:29:57;;;;;;;1.80;1.50;;;21.60;63.10;;;;;;10322243;28;20077;-59
2023/07/21 00:34:58;;;;;;;2.13;1.50;;;21.60;63.00;;;;;;10322635;28;20068;-56
2023/07/21 00:39:59;;;;;;;2.47;1.30;;;21.60;63.00;;;;;;10322101;28;20137;-58
2023/07/21 00:44:59;;;;;;;1.77;1.40;;;21.60;63.00;;;;;;10322185;28;20354;-58
2023/07/21 00:50:00;;;;;;;2.15;1.33;;;21.60;63.00;;;;;;10321699;28;20109;-58
2023/07/21 00:55:01;;;;;;;1.63;1.48;;;21.60;62.90;;;;;;10321611;28;20038;-59
2023/07/21 01:00:12;;;;;;;2.00;1.52;;;21.60;62.90;;;;;;10321327;28;20120;-58
2023/07/21 01:05:12;;;;;;;2.35;1.70;;;21.60;62.80;;;;;;10321105;28;20030;-57
2023/07/21 01:10:13;;;;;;;2.50;1.73;;;21.60;62.70;;;;;;10349445;28;20097;-58
2023/07/21 01:15:14;;;;;;;2.05;1.55;;;21.60;62.70;;;;;;10345205;28;20026;-56
2023/07/21 01:20:16;;;;;;;2.03;1.83;;;21.60;62.70;;;;;;10320821;28;20650;-56
2023/07/21 01:25:18;;;;;;;1.90;1.40;;;21.60;62.60;;;;;;10351864;28;20037;-57
2023/07/21 01:30:20;;;;;;;2.35;1.80;;;21.60;62.60;;;;;;10320607;28;20482;-57
2023/07/21 01:35:21;;;;;;;2.17;1.70;;;21.60;62.60;;;;;;10320164;28;20028;-58
2023/07/21 01:40:25;;;;;;;1.65;1.42;;;21.50;62.50;;;;;;10320111;28;20073;-58
2023/07/21 01:45:26;;;;;;;2.35;1.98;;;21.50;62.50;;;;;;10320144;28;20041;-58
2023/07/21 01:50:27;;;;;;;2.67;1.65;;;21.50;62.50;;;;;;10320759;28;20097;-59
2023/07/21 01:55:39;;;;;;;2.13;1.52;;;21.50;62.50;;;;;;10319938;28;20014;-58
2023/07/21 02:00:43;;;;;;;2.42;1.65;;;21.50;62.50;;;;;;10350960;28;20045;-58
2023/07/21 02:05:43;;;;;;;2.70;1.88;;;21.50;62.40;;;;;;10319584;28;20031;-57
2023/07/21 02:10:44;;;;;;;2.22;1.80;;;21.50;62.40;;;;;;10352046;28;20476;-58
2023/07/21 02:15:47;;;;;;;2.25;1.45;;;21.50;62.40;;;;;;10371558;28;20410;-59
2023/07/21 02:20:47;;;;;;;2.28;1.55;;;21.50;62.40;;;;;;10319901;28;20023;-58
2023/07/21 02:25:48;;;;;;;2.25;2.03;;;21.50;62.40;;;;;;10319406;28;20035;-58
2023/07/21 02:31:02;;;;;;;2.75;2.15;;;21.50;62.30;;;;;;10319315;28;20105;-58
2023/07/21 02:36:05;;;;;;;2.95;2.30;;;21.50;62.30;;;;;;10319658;28;20504;-58
2023/07/21 02:41:08;;;;;;;2.88;1.80;;;21.40;62.20;;;;;;10319027;28;20054;-57
2023/07/21 02:46:09;;;;;;;2.03;1.67;;;21.50;62.30;;;;;;10325816;28;20031;-58
2023/07/21 02:51:09;;;;;;;1.80;1.65;;;21.40;62.20;;;;;;10326375;28;20030;-58
2023/07/21 02:56:10;;;;;;;2.85;2.00;;;21.40;62.20;;;;;;10326217;28;20027;-57
2023/07/21 03:01:12;;;;;;;1.98;1.77;;;21.40;62.20;;;;;;10357560;28;20552;-58
2023/07/21 03:06:13;;;;;;;2.78;1.73;;;21.40;62.20;;;;;;10325651;28;20034;-59
2023/07/21 03:11:14;;;;;;;11.77;2.22;;;21.40;62.20;;;;;;10361755;28;20029;-58
2023/07/21 03:16:15;;;;;;;2.55;1.85;;;21.40;62.10;;;;;;10341456;28;20049;-58
2023/07/21 03:21:15;;;;;;;3.25;1.80;;;21.40;62.10;;;;;;10325101;28;20025;-58
2023/07/21 03:26:16;;;;;;;2.17;1.70;;;21.40;62.00;;;;;;10356659;28;20034;-58
2023/07/21 03:31:17;;;;;;;2.22;1.90;;;21.40;62.60;;;;;;10323098;28;20034;-58
2023/07/21 03:36:23;;;;;;;1.85;1.65;;;21.40;62.00;;;;;;10321624;28;20084;-58
2023/07/21 03:41:24;;;;;;;2.50;2.28;;;21.40;61.90;;;;;;10325861;28;20054;-58
2023/07/21 03:46:24;;;;;;;2.00;1.50;;;21.40;61.80;;;;;;10325768;28;20031;-58
2023/07/21 03:51:27;;;;;;;2.00;1.30;;;21.40;61.80;;;;;;10324335;28;20534;-59
2023/07/21 03:56:27;;;;;;;1.98;1.55;;;21.40;61.80;;;;;;10322444;28;20037;-59
2023/07/21 04:01:28;;;;;;;1.92;1.55;;;21.40;62.00;;;;;;10324927;28;20126;-58
2023/07/21 04:06:29;;;;;;;2.25;1.85;;;21.40;61.70;;;;;;10324609;28;20481;-57
2023/07/21 04:11:29;;;;;;;1.98;1.73;;;21.40;61.70;;;;;;10362937;28;20019;-58
2023/07/21 04:16:30;;;;;;;2.70;1.55;;;21.30;61.60;;;;;;10338132;28;20034;-57
2023/07/21 04:21:31;;;;;;;2.63;1.83;;;21.30;61.50;;;;;;10324253;28;20014;-57
2023/07/21 04:26:32;;;;;;;2.60;1.40;;;21.30;61.50;;;;;;10323903;28;20030;-57
2023/07/21 04:31:33;;;;;;;1.75;1.58;;;21.30;61.60;;;;;;10324211;28;20514;-58
2023/07/21 04:36:35;;;;;;;1.83;1.50;;;21.30;61.50;;;;;;10323586;28;20026;-58
2023/07/21 04:41:35;;;;;;;3.28;1.50;;;21.30;61.50;;;;;;10323360;28;20081;-59
2023/07/21 04:46:36;;;;;;;3.75;1.58;;;21.30;61.50;;;;;;10323579;28;20129;-58
2023/07/21 04:51:37;;;;;;;2.83;1.40;;;21.30;61.60;;;;;;10354757;28;20019;-58
2023/07/21 04:56:38;;;;;;;2.40;1.55;;;21.30;61.60;;;;;;10322803;28;20045;-58
2023/07/21 05:01:39;;;;;;;2.40;1.80;;;21.30;61.60;;;;;;10322592;28;20026;-59
2023/07/21 05:06:43;;;;;;;2.13;1.38;;;21.30;61.60;;;;;;10322121;28;20034;-58
2023/07/21 05:11:43;;;;;;;2.03;1.40;;;21.30;61.60;;;;;;10367152;28;20401;-58
2023/07/21 05:16:44;;;;;;;1.92;1.38;;;21.30;61.60;;;;;;10350630;28;20092;-58
2023/07/21 05:21:45;;;;;;;1.83;1.58;;;21.30;61.60;;;;;;10362528;28;20426;-58
2023/07/21 05:26:46;;;;;;;2.65;1.58;;;21.30;61.50;;;;;;10332081;28;20038;-58
2023/07/21 05:31:47;;;;;;;1.98;1.50;;;21.30;61.50;;;;;;10322061;28;20101;-57
2023/07/21 05:36:48;;;;;;;2.28;1.67;;;21.30;61.50;;;;;;10321498;28;20106;-57
2023/07/21 05:41:48;;;;;;;1.65;1.40;;;21.30;61.50;;;;;;10321549;28;20057;-59
2023/07/21 05:46:49;;;;;;;2.35;1.60;;;21.30;61.50;;;;;;10321614;28;20537;-58
2023/07/21 05:51:50;;;;;;;1.50;1.40;;;21.30;61.60;;;;;;10321473;28;20111;-58
2023/07/21 05:56:52;;;;;;;1.83;1.45;;;21.30;61.70;;;;;;10322216;28;20397;-59
2023/07/21 06:01:57;;;;;;;1.65;1.55;;;21.30;61.70;;;;;;10321062;28;20054;-58
2023/07/21 06:06:58;;;;;;;2.40;1.90;;;21.30;61.70;;;;;;10349126;28;20084;-58
2023/07/21 06:11:58;;;;;;;2.20;1.50;;;21.30;61.80;;;;;;10361890;28;20513;-57
2023/07/21 06:16:59;;;;;;;1.95;1.42;;;21.30;61.90;;;;;;10332167;28;20026;-59
2023/07/21 06:22:00;;;;;;;1.95;1.42;;;21.40;62.00;;;;;;10355352;28;20105;-59
2023/07/21 06:27:00;;;;;;;1.38;1.02;;;21.30;61.90;;;;;;10328428;28;20034;-59
2023/07/21 06:32:01;;;;;;;1.35;1.25;;;21.40;62.00;;;;;;10328468;28;20097;-58
2023/07/21 06:37:02;;;;;;;2.00;1.33;;;21.40;62.10;;;;;;10328441;28;20488;-58
2023/07/21 06:42:04;;;;;;;1.27;1.17;;;21.40;62.10;;;;;;10327992;28;20058;-58
2023/07/21 06:47:05;;;;;;;2.63;1.52;;;21.40;62.20;;;;;;10332740;28;20058;-57
2023/07/21 06:52:08;;;;;;;1.90;1.30;;;21.40;62.50;;;;;;10354250;28;20022;-57
2023/07/21 06:57:10;;;;;;;1.30;1.05;;;21.40;62.30;;;;;;10331549;28;20050;-56
2023/07/21 07:02:10;;;;;;;1.67;1.38;;;21.40;62.20;;;;;;10318037;28;20049;-56
2023/07/21 07:07:11;;;;;;;1.33;1.13;;;21.40;62.40;;;;;;10390593;28;20049;-54
2023/07/21 07:12:12;;;;;;;1.95;1.40;;;21.40;62.30;;;;;;10397979;28;20022;-55
2023/07/21 07:17:13;;;;;;;1.85;1.33;;;21.50;62.40;;;;;;10392161;28;20021;-56
2023/07/21 07:22:14;;;;;;;1.50;1.40;;;21.50;62.20;;;;;;10390779;28;20622;-57
2023/07/21 07:27:15;;;;;;;2.17;1.25;;;21.50;62.20;;;;;;10407329;28;20057;-56
2023/07/21 07:32:16;;;;;;;1.98;1.42;;;21.50;62.10;;;;;;10398085;28;20505;-57
2023/07/21 07:37:16;;;;;;;1.48;1.30;;;21.50;62.10;;;;;;10366478;28;20303;-55
2023/07/21 07:42:17;;;;;;;2.30;1.77;;;21.50;61.90;;;;;;10385206;28;20482;-56
2023/07/21 07:47:18;;;;;;;2.08;1.40;;;21.50;62.40;;;;;;10365957;28;20393;-55
2023/07/21 07:52:19;;;;;;;2.55;1.40;;;21.60;62.00;;;;;;10365347;28;20041;-56
2023/07/21 07:57:20;;;;;;;1.88;1.33;;;21.60;61.50;;;;;;10380766;28;20399;-56
2023/07/21 08:02:21;;;;;;;2.45;1.25;;;21.60;61.90;;;;;;10386483;28;20026;-54
2023/07/21 08:07:21;;;;;;;3.03;1.60;;;21.60;61.90;;;;;;10383291;28;20041;-56
2023/07/21 08:12:22;;;;;;;2.15;1.63;;;21.60;61.90;;;;;;10394495;28;20149;-56
2023/07/21 08:17:23;;;;;;;2.65;1.63;;;21.60;61.90;;;;;;10378629;28;20083;-54
2023/07/21 08:22:24;;;;;;;1.77;1.15;;;21.60;62.00;;;;;;10364943;28;20381;-56
2023/07/21 08:27:26;;;;;;;1.38;1.27;;;21.60;61.90;;;;;;10399425;28;20087;-57
2023/07/21 08:32:27;;;;;;;2.50;1.40;;;21.60;62.30;;;;;;10400959;28;20045;-56
2023/07/21 08:37:28;;;;;;;2.20;1.17;;;21.60;61.70;;;;;;10378158;28;20034;-55
2023/07/21 08:42:28;;;;;;;1.58;1.15;;;21.60;61.70;;;;;;10363185;28;20085;-55
2023/07/21 08:47:30;;;;;;;1.98;1.10;;;21.60;61.70;;;;;;10369400;28;20048;-55
2023/07/21 08:52:32;;;;;;;2.15;1.52;;;21.70;61.60;;;;;;10397637;28;20033;-55
2023/07/21 08:57:32;;;;;;;1.52;1.40;;;21.70;61.70;;;;;;10395789;28;20517;-55
2023/07/21 09:02:44;;;;;;;1.63;1.02;;;21.70;61.70;;;;;;10363001;28;20105;-57
2023/07/21 09:07:48;;;;;;;1.77;1.17;;;21.70;61.70;;;;;;10395130;28;20073;-56
2023/07/21 09:12:48;;;;;;;2.35;1.30;;;21.70;61.70;;;;;;10402545;28;20010;-56
2023/07/21 09:17:49;;;;;;;2.00;1.20;;;21.70;61.70;;;;;;10388341;28;20022;-56
2023/07/21 09:22:50;;;;;;;1.67;1.25;;;21.70;61.80;;;;;;10398502;28;20025;-56
2023/07/21 09:27:55;;;;;;;1.73;1.13;;;21.70;61.70;;;;;;10391577;28;20038;-56
2023/07/21 09:32:56;;;;;;;2.45;1.65;;;21.70;61.50;;;;;;10405707;28;20033;-56
2023/07/21 09:37:59;;;;;;;2.10;1.30;;;21.70;61.60;;;;;;10405497;28;20030;-57
2023/07/21 09:43:00;;;;;;;1.58;1.23;;;21.80;61.50;;;;;;10405335;28;20504;-57
2023/07/21 09:48:01;;;;;;;1.80;1.17;;;21.70;61.50;;;;;;10404868;28;20091;-57
2023/07/21 09:53:04;;;;;;;2.60;1.42;;;21.80;61.60;;;;;;10407593;28;20538;-56
2023/07/21 09:58:09;;;;;;;1.55;1.20;;;21.80;61.50;;;;;;10404051;28;20022;-57
2023/07/21 10:03:11;;;;;;;1.75;0.95;;;21.70;61.40;;;;;;10393842;28;20018;-57
2023/07/21 10:08:12;;;;;;;1.13;0.82;;;21.70;61.30;;;;;;10398011;28;20040;-56
2023/07/21 10:13:13;;;;;;;2.20;1.60;;;21.70;61.40;;;;;;10408647;28;20109;-56
2023/07/21 10:18:14;;;;;;;1.33;0.80;;;21.80;61.60;;;;;;10382981;28;20673;-57
2023/07/21 10:23:22;;;;;;;2.72;1.45;;;21.80;61.50;;;;;;10370373;28;20026;-55
2023/07/21 10:28:30;;;;;;;1.23;0.95;;;21.80;61.30;;;;;;10410132;28;20037;-56
2023/07/21 10:33:31;;;;;;;1.53;1.07;;;21.80;61.30;;;;;;10409610;28;20029;-56
2023/07/21 10:38:40;;;;;;;1.80;1.10;;;21.80;61.20;;;;;;10409541;28;20060;-56
2023/07/21 10:43:41;;;;;;;1.40;1.10;;;21.80;61.00;;;;;;10409400;28;20045;-56
2023/07/21 10:48:42;;;;;;;2.35;0.93;;;21.90;61.00;;;;;;10409185;28;20485;-56
2023/07/21 10:53:43;;;;;;;1.95;1.52;;;21.90;60.90;;;;;;10408677;28;20380;-55
2023/07/21 10:58:43;;;;;;;1.50;1.00;;;22.00;60.90;;;;;;10396130;28;20054;-55
2023/07/21 11:03:46;;;;;;;2.45;1.25;;;21.90;60.90;;;;;;10366945;28;20499;-55
2023/07/21 11:08:47;;;;;;;1.42;0.82;;;21.90;61.00;;;;;;10384063;28;20041;-56
2023/07/21 11:13:47;;;;;;;3.22;1.10;;;21.90;61.00;;;;;;10407442;28;20532;-56
2023/07/21 11:18:48;;;;;;;1.50;1.10;;;21.90;61.00;;;;;;10375798;28;20021;-56
2023/07/21 11:24:00;;;;;;;1.75;1.20;;;22.00;60.80;;;;;;10366955;28;20033;-56
2023/07/21 11:29:03;;;;;;;1.92;1.08;;;22.00;60.80;;;;;;10366703;28;20504;-57
2023/07/21 11:34:28;;;;;;;2.13;1.15;;;22.00;60.70;;;;;;10365171;28;20228;-56
2023/07/21 11:39:29;;;;;;;1.95;1.25;;;22.00;60.70;;;;;;10366679;28;20045;-56
2023/07/21 11:44:35;;;;;;;1.35;1.20;;;22.00;60.70;;;;;;10366149;28;20104;-56
2023/07/21 11:49:45;;;;;;;1.80;1.10;;;22.00;60.70;;;;;;10388336;28;20065;-57
2023/07/21 11:54:46;;;;;;;1.60;1.00;;;22.00;60.70;;;;;;10365698;28;20020;-56
2023/07/21 11:59:47;;;;;;;1.52;1.10;;;22.00;60.60;;;;;;10402796;28;20025;-57
2023/07/21 12:04:48;;;;;;;1.77;1.30;;;22.00;60.30;;;;;;10406846;28;20029;-57
2023/07/21 12:09:49;;;;;;;2.55;1.20;;;22.00;60.40;;;;;;10404220;28;20048;-56
2023/07/21 12:14:49;;;;;;;1.98;1.17;;;22.00;60.50;;;;;;10378641;28;20036;-56
2023/07/21 12:19:50;;;;;;;1.60;1.10;;;22.00;60.60;;;;;;10365065;28;20022;-56
2023/07/21 12:24:51;;;;;;;1.83;1.20;;;22.00;60.60;;;;;;10389661;28;20144;-57
2023/07/21 12:29:51;;;;;;;1.45;1.20;;;22.00;60.60;;;;;;10405495;28;20526;-57
2023/07/21 12:34:52;;;;;;;1.23;1.10;;;22.00;60.80;;;;;;10403375;28;20067;-57
2023/07/21 12:39:54;;;;;;;1.70;1.08;;;21.90;60.80;;;;;;10390518;28;20141;-58
2023/07/21 12:44:55;;;;;;;1.30;1.20;;;21.90;60.60;;;;;;10382857;28;20025;-59
2023/07/21 12:49:56;;;;;;;5.53;1.40;;;21.90;60.50;;;;;;10404421;28;20025;-58
2023/07/21 12:54:56;;;;;;;2.15;1.45;;;21.80;60.50;;;;;;10404161;28;20038;-59
2023/07/21 12:59:57;;;;;;;1.67;1.40;;;21.80;60.70;;;;;;10402200;28;20145;-58
2023/07/21 13:04:58;;;;;;;2.92;1.60;;;21.80;60.80;;;;;;10403424;28;20292;-59
2023/07/21 13:09:58;;;;;;;3.15;1.50;;;21.80;61.00;;;;;;10403737;28;20044;-58
2023/07/21 13:14:59;;;;;;;1.45;1.13;;;21.80;61.20;;;;;;10389133;28;20110;-58
2023/07/21 13:20:00;;;;;;;1.88;1.55;;;21.80;61.40;;;;;;10362960;28;20381;-58
2023/07/21 13:25:00;;;;;;;1.85;1.45;;;21.70;61.40;;;;;;10362410;28;20101;-58
2023/07/21 13:30:02;;;;;;;2.15;1.40;;;21.70;61.40;;;;;;10362062;28;20030;-57
2023/07/21 13:35:03;;;;;;;2.13;1.35;;;21.70;61.50;;;;;;10362054;28;20026;-58
2023/07/21 13:40:05;;;;;;;2.70;1.33;;;21.80;61.60;;;;;;10377965;28;21124;-58
2023/07/21 13:45:06;;;;;;;1.45;1.30;;;21.80;61.60;;;;;;10386807;28;20214;-58
2023/07/21 13:50:09;;;;;;;3.20;1.50;;;21.80;61.60;;;;;;10368911;28;20449;-59
2023/07/21 13:55:09;;;;;;;2.80;1.20;;;21.80;62.10;;;;;;10360628;28;20014;-59
2023/07/21 14:00:18;;;;;;;1.48;1.35;;;21.80;61.50;;;;;;10357336;28;20013;-58
2023/07/21 14:05:18;;;;;;;1.77;1.30;;;21.80;61.50;;;;;;10375085;28;20078;-59
2023/07/21 14:10:19;;;;;;;1.98;1.30;;;21.90;61.50;;;;;;10390568;28;20139;-58
2023/07/21 14:15:20;;;;;;;2.08;1.23;;;21.90;61.50;;;;;;10384010;28;20018;-58
2023/07/21 14:20:21;;;;;;;1.77;1.20;;;21.90;61.50;;;;;;10361479;28;20097;-57
2023/07/21 14:25:22;;;;;;;1.67;1.08;;;21.90;61.50;;;;;;10360647;28;20481;-58
2023/07/21 14:30:23;;;;;;;3.53;1.23;;;21.90;62.00;;;;;;10361290;28;20050;-59
2023/07/21 14:35:23;;;;;;;1.95;1.27;;;21.90;61.40;;;;;;10361251;28;20385;-57
2023/07/21 14:40:24;;;;;;;2.15;1.25;;;22.00;61.30;;;;;;10365616;28;20050;-58
2023/07/21 14:45:25;;;;;;;1.98;1.15;;;22.00;61.30;;;;;;10392926;28;20041;-59
2023/07/21 14:50:27;;;;;;;1.25;1.00;;;22.00;61.30;;;;;;10409256;28;20509;-58
2023/07/21 14:55:29;;;;;;;2.38;1.38;;;21.90;61.20;;;;;;10409438;28;20021;-58
2023/07/21 15:00:29;;;;;;;1.58;1.45;;;21.90;61.40;;;;;;10381720;28;20029;-58
2023/07/21 15:05:31;;;;;;;3.25;1.20;;;21.90;61.50;;;;;;10408612;28;20520;-59
2023/07/21 15:10:33;;;;;;;2.15;1.35;;;21.90;61.60;;;;;;10408214;28;20417;-59
2023/07/21 15:15:35;;;;;;;2.42;1.60;;;21.90;61.70;;;;;;10389295;28;20026;-58
2023/07/21 15:20:35;;;;;;;1.88;1.27;;;21.90;61.70;;;;;;10367078;28;20030;-58
2023/07/21 15:25:36;;;;;;;1.75;1.40;;;21.90;62.40;;;;;;10366804;28;20105;-59
2023/07/21 15:30:36;;;;;;;2.38;1.63;;;22.00;62.40;;;;;;10366727;28;20022;-58
2023/07/21 15:35:44;;;;;;;1.70;1.20;;;22.00;62.00;;;;;;10366963;28;20056;-58
2023/07/21 15:40:45;;;;;;;1.60;1.50;;;21.90;61.90;;;;;;10366298;28;20054;-57
2023/07/21 15:45:45;;;;;;;2.33;1.65;;;22.00;61.90;;;;;;10366546;28;20125;-58
2023/07/21 15:50:46;;;;;;;2.70;2.05;;;22.00;62.10;;;;;;10372245;28;20720;-58
2023/07/21 15:55:47;;;;;;;2.28;1.48;;;22.00;62.30;;;;;;10405428;28;20026;-56
2023/07/21 16:01:02;;;;;;;2.00;1.55;;;22.00;62.10;;;;;;10405783;28;20488;-56
2023/07/21 16:06:05;;;;;;;3.00;2.30;;;21.90;62.00;;;;;;10382953;28;20029;-56
2023/07/21 16:11:07;;;;;;;3.70;2.75;;;21.90;62.00;;;;;;10399875;28;20029;-55
2023/07/21 16:16:08;;;;;;;3.78;2.42;;;22.00;61.70;;;;;;10405129;28;20032;-57
2023/07/21 16:21:09;;;;;;;3.95;2.55;;;22.00;61.80;;;;;;10405845;28;20028;-56
2023/07/21 16:26:14;;;;;;;3.50;2.50;;;22.00;61.50;;;;;;10405590;28;20660;-55
2023/07/21 16:31:15;;;;;;;3.50;2.50;;;21.90;61.60;;;;;;10390862;28;20025;-56
2023/07/21 16:36:16;;;;;;;3.50;2.47;;;21.90;61.60;;;;;;10363233;28;20021;-56
2023/07/21 16:41:16;;;;;;;3.72;2.97;;;21.90;61.40;;;;;;10364104;28;20103;-56
2023/07/21 16:46:17;;;;;;;3.25;2.40;;;21.90;61.90;;;;;;10363929;28;20595;-56
2023/07/21 16:51:18;;;;;;;2.60;2.08;;;21.90;62.00;;;;;;10363911;28;20477;-56
2023/07/21 16:56:19;;;;;;;3.22;2.50;;;21.90;61.90;;;;;;10363888;28;20053;-55
2023/07/21 17:01:20;;;;;;;3.08;2.20;;;21.90;61.90;;;;;;10362767;28;20433;-57
2023/07/21 17:06:22;;;;;;;3.75;2.60;;;21.90;61.70;;;;;;10363392;28;20117;-56
2023/07/21 17:11:23;;;;;;;3.40;2.30;;;21.80;61.90;;;;;;10400927;28;20085;-56
2023/07/21 17:16:24;;;;;;;3.13;2.35;;;21.90;61.60;;;;;;10377909;28;20026;-55
2023/07/21 17:21:24;;;;;;;3.47;2.75;;;21.90;61.60;;;;;;10362639;28;20041;-55
2023/07/21 17:26:25;;;;;;;2.97;2.15;;;21.90;61.10;;;;;;10362560;28;20030;-55
2023/07/21 17:31:26;;;;;;;4.43;3.20;;;21.90;61.30;;;;;;10362483;28;20036;-55
2023/07/21 17:36:26;;;;;;;4.25;3.15;;;21.90;60.80;;;;;;10362760;28;20511;-56
2023/07/21 17:41:27;;;;;;;5.47;3.10;;;21.90;61.00;;;;;;10362216;28;20137;-56
2023/07/21 17:46:28;;;;;;;5.15;3.75;;;21.90;60.90;;;;;;10361958;28;20057;-56
2023/07/21 17:51:29;;;;;;;4.88;3.28;;;21.90;60.50;;;;;;10362253;28;20018;-56
2023/07/21 17:56:29;;;;;;;3.92;2.90;;;21.90;60.70;;;;;;10362040;28;20592;-56
2023/07/21 18:01:30;;;;;;;4.85;3.33;;;21.90;60.60;;;;;;10361772;28;20156;-55
2023/07/21 18:06:31;;;;;;;3.50;2.80;;;21.90;60.40;;;;;;10361270;28;20117;-56
2023/07/21 18:11:31;;;;;;;6.47;3.70;;;21.90;60.50;;;;;;10400405;28;20100;-56
2023/07/21 18:16:32;;;;;;;5.07;3.28;;;21.90;60.70;;;;;;10382323;28;20068;-56
2023/07/21 18:21:34;;;;;;;3.92;2.95;;;21.90;60.50;;;;;;10369405;28;20397;-56
2023/07/21 18:26:35;;;;;;;4.88;3.70;;;21.90;60.60;;;;;;10369489;28;20165;-56
2023/07/21 18:31:37;;;;;;;3.92;2.67;;;21.80;60.30;;;;;;10368967;28;20014;-56
2023/07/21 18:36:38;;;;;;;5.55;3.25;;;21.80;61.20;;;;;;10369193;28;20040;-55
2023/07/21 18:41:39;;;;;;;4.10;2.75;;;21.80;60.50;;;;;;10367114;28;20049;-56
2023/07/21 18:46:39;;;;;;;4.45;2.88;;;21.80;60.60;;;;;;10368883;28;20042;-55
2023/07/21 18:51:40;;;;;;;3.20;2.33;;;21.80;61.00;;;;;;10366874;28;20014;-56
2023/07/21 18:56:41;;;;;;;4.05;2.63;;;21.80;61.20;;;;;;10367017;28;20141;-56
2023/07/21 19:01:42;;;;;;;3.90;2.75;;;21.70;61.40;;;;;;10367601;28;20120;-56
2023/07/21 19:06:43;;;;;;;3.35;2.65;;;21.70;61.50;;;;;;10366371;28;20137;-56
2023/07/21 19:11:44;;;;;;;4.53;3.10;;;21.70;61.70;;;;;;10408969;28;20039;-56
2023/07/21 19:16:45;;;;;;;3.70;3.00;;;21.70;61.70;;;;;;10380120;28;20069;-56
2023/07/21 19:21:45;;;;;;;3.92;2.70;;;21.70;61.80;;;;;;10367553;28;20106;-55
2023/07/21 19:26:46;;;;;;;3.03;2.17;;;21.70;61.70;;;;;;10366465;28;20061;-56
2023/07/21 19:31:47;;;;;;;3.92;2.53;;;21.70;61.80;;;;;;10366689;28;20149;-56
2023/07/21 19:36:48;;;;;;;3.50;2.50;;;21.60;61.80;;;;;;10366981;28;20050;-56
2023/07/21 19:41:49;;;;;;;3.70;2.72;;;21.70;61.80;;;;;;10366575;28;20045;-56
2023/07/21 19:46:49;;;;;;;3.58;2.95;;;21.70;61.90;;;;;;10366516;28;20088;-56
2023/07/21 19:51:51;;;;;;;3.08;2.65;;;21.60;61.80;;;;;;10366194;28;20537;-57
2023/07/21 19:56:52;;;;;;;3.38;2.20;;;21.60;61.70;;;;;;10365628;28;20544;-55
2023/07/21 20:01:53;;;;;;;3.45;2.38;;;21.60;61.80;;;;;;10365646;28;20346;-57
2023/07/21 20:06:54;;;;;;;3.35;2.28;;;21.60;61.80;;;;;;10366214;28;20038;-57
2023/07/21 20:11:54;;;;;;;3.25;2.63;;;21.60;61.80;;;;;;10406058;28;20194;-56
2023/07/21 20:16:55;;;;;;;2.58;1.80;;;21.60;61.80;;;;;;10376116;28;20449;-54
2023/07/21 20:21:56;;;;;;;4.30;2.80;;;21.60;61.80;;;;;;10363163;28;20105;-55
2023/07/21 20:26:56;;;;;;;2.65;2.40;;;21.60;61.80;;;;;;10363710;28;20109;-55
2023/07/21 20:31:57;;;;;;;3.30;2.35;;;21.60;61.90;;;;;;10363199;28;20049;-55
2023/07/21 20:36:58;;;;;;;3.05;2.55;;;21.60;61.90;;;;;;10362408;28;20026;-55
2023/07/21 20:41:58;;;;;;;3.08;2.50;;;21.60;61.90;;;;;;10362479;28;20180;-55
2023/07/21 20:46:59;;;;;;;3.65;2.28;;;21.60;61.90;;;;;;10362579;28;20430;-56
2023/07/21 20:52:00;;;;;;;3.97;3.10;;;21.60;61.90;;;;;;10362375;28;20093;-54
2023/07/21 20:57:00;;;;;;;4.72;3.08;;;21.60;62.00;;;;;;10362179;28;20107;-56
2023/07/21 21:02:01;;;;;;;3.70;2.80;;;21.60;62.00;;;;;;10362161;28;20677;-57
2023/07/21 21:07:02;;;;;;;3.88;2.65;;;21.60;62.10;;;;;;10363946;28;20489;-55
2023/07/21 21:12:03;;;;;;;4.53;3.38;;;21.60;62.20;;;;;;10402718;28;20024;-55
2023/07/21 21:17:04;;;;;;;3.75;2.40;;;21.60;62.10;;;;;;10370994;28;20084;-56
2023/07/21 21:22:05;;;;;;;4.50;3.10;;;21.60;62.20;;;;;;10361785;28;20076;-55
2023/07/21 21:27:06;;;;;;;3.85;3.00;;;21.60;62.20;;;;;;10361408;28;20095;-56
2023/07/21 21:32:08;;;;;;;3.50;2.38;;;21.60;62.30;;;;;;10361569;28;20083;-56
2023/07/21 21:37:08;;;;;;;4.22;3.20;;;21.60;62.30;;;;;;10360261;28;20022;-55
2023/07/21 21:42:09;;;;;;;3.88;2.72;;;21.50;62.30;;;;;;10361258;28;20124;-56
2023/07/21 21:47:10;;;;;;;3.53;2.78;;;21.50;62.30;;;;;;10362798;28;20036;-56
2023/07/21 21:52:10;;;;;;;3.95;3.05;;;21.50;62.30;;;;;;10375043;28;20076;-55
2023/07/21 21:57:11;;;;;;;3.85;2.97;;;21.50;62.30;;;;;;10374150;28;20109;-55
2023/07/21 22:02:12;;;;;;;3.75;2.95;;;21.50;62.30;;;;;;10373384;28;20075;-56
2023/07/21 22:07:13;;;;;;;4.20;3.38;;;21.50;62.40;;;;;;10378025;28;20036;-55
2023/07/21 22:12:13;;;;;;;4.30;3.10;;;21.50;62.40;;;;;;10414606;28;20108;-55
2023/07/21 22:17:14;;;;;;;3.58;2.50;;;21.50;62.40;;;;;;10382540;28;20104;-56
2023/07/21 22:22:15;;;;;;;3.95;2.83;;;21.50;62.40;;;;;;10373823;28;20022;-56
2023/07/21 22:27:15;;;;;;;4.40;3.30;;;21.50;62.50;;;;;;10373517;28;20109;-55
2023/07/21 22:32:16;;;;;;;5.00;3.53;;;21.50;62.50;;;;;;10373628;28;20049;-56
2023/07/21 22:37:17;;;;;;;3.90;3.10;;;21.50;62.50;;;;;;10373311;28;20022;-55
2023/07/21 22:42:17;;;;;;;4.80;3.45;;;21.50;62.50;;;;;;10373825;28;20061;-56
2023/07/21 22:47:18;;;;;;;3.80;3.03;;;21.50;62.50;;;;;;10373304;28;20030;-56
2023/07/21 22:52:19;;;;;;;3.97;3.58;;;21.50;62.50;;;;;;10372558;28;20049;-55
2023/07/21 22:57:19;;;;;;;4.18;3.05;;;21.50;62.60;;;;;;10373557;28;20026;-53
2023/07/21 23:02:20;;;;;;;4.82;3.17;;;21.40;62.50;;;;;;10366938;28;20096;-56
2023/07/21 23:07:21;;;;;;;4.03;2.83;;;21.50;62.50;;;;;;10370685;28;20029;-55
2023/07/21 23:12:21;;;;;;;4.10;3.03;;;21.40;62.50;;;;;;10407552;28;20329;-55
2023/07/21 23:17:22;;;;;;;4.47;3.00;;;21.40;62.50;;;;;;10373205;28;20044;-56
2023/07/21 23:22:23;;;;;;;5.05;3.72;;;21.40;62.50;;;;;;10365969;28;20049;-56
2023/07/21 23:27:23;;;;;;;4.13;3.40;;;21.40;62.50;;;;;;10365827;28;20125;-55
2023/07/21 23:32:24;;;;;;;4.22;3.03;;;21.40;62.50;;;;;;10365387;28;20014;-56
2023/07/21 23:37:25;;;;;;;3.53;2.63;;;21.40;62.50;;;;;;10365420;28;20057;-54
2023/07/21 23:42:25;;;;;;;4.68;3.50;;;21.40;62.50;;;;;;10365188;28;20052;-55
2023/07/21 23:47:27;;;;;;;4.18;3.10;;;21.40;62.50;;;;;;10364680;28;20118;-56
2023/07/21 23:52:27;;;;;;;3.88;2.97;;;21.40;62.50;;;;;;10364787;28;20029;-56
2023/07/21 23:57:28;;;;;;;4.43;3.78;;;21.40;62.50;;;;;;10364670;28;20444;-55
